createdAt,value
2022-12-01T00:01:44.742Z,4.67
2022-12-01T00:04:25.776Z,4.67
2022-12-01T00:07:06.147Z,4.61
2022-12-01T00:10:05.624Z,4.66
2022-12-01T00:13:00.447Z,4.56
2022-12-01T00:15:39.409Z,4.57
2022-12-01T00:18:19.510Z,4.53
2022-12-01T00:21:00.360Z,4.51
2022-12-01T00:23:40.790Z,4.51
2022-12-01T00:26:21.382Z,4.49
2022-12-01T00:29:01.996Z,4.47
2022-12-01T00:31:43.910Z,4.46
2022-12-01T00:34:28.019Z,4.29
2022-12-01T00:37:05.944Z,4.30
2022-12-01T00:39:57.907Z,4.27
2022-12-01T00:42:39.162Z,4.25
2022-12-01T00:45:19.043Z,4.25
2022-12-01T00:48:00.387Z,4.19
2022-12-01T00:50:42.206Z,4.22
2022-12-01T00:53:24.529Z,4.20
2022-12-01T00:56:05.895Z,4.14
2022-12-01T00:58:46.064Z,4.25
2022-12-01T01:01:25.873Z,4.27
2022-12-01T01:04:07.415Z,4.18
2022-12-01T01:06:51.006Z,4.29
2022-12-01T01:09:34.701Z,4.32
2022-12-01T01:12:14.956Z,4.24
2022-12-01T01:14:56.107Z,4.30
2022-12-01T01:17:38.887Z,4.23
2022-12-01T01:20:18.894Z,4.23
2022-12-01T01:22:58.720Z,4.24
2022-12-01T01:25:40.070Z,4.22
2022-12-01T01:28:19.905Z,4.20
2022-12-01T01:30:59.764Z,4.22
2022-12-01T01:33:41.148Z,4.27
2022-12-01T01:36:23.282Z,4.26
2022-12-01T01:39:04.014Z,4.21
2022-12-01T01:41:45.310Z,4.20
2022-12-01T01:44:49.083Z,4.18
2022-12-01T01:47:29.221Z,4.25
2022-12-01T01:50:11.338Z,4.18
2022-12-01T01:52:52.725Z,4.23
2022-12-01T01:55:35.333Z,4.17
2022-12-01T01:58:18.179Z,4.06
2022-12-01T02:00:59.233Z,4.10
2022-12-01T02:03:40.678Z,4.07
2022-12-01T02:06:22.085Z,4.16
2022-12-01T02:09:03.427Z,4.16
2022-12-01T02:11:52.654Z,4.10
2022-12-01T02:14:37.059Z,4.05
2022-12-01T02:17:22.781Z,4.08
2022-12-01T02:20:23.132Z,3.95
2022-12-01T02:23:13.851Z,3.94
2022-12-01T02:25:57.755Z,4.00
2022-12-01T02:28:44.068Z,4.00
2022-12-01T02:31:26.600Z,4.00
2022-12-01T02:34:07.898Z,4.01
2022-12-01T02:36:49.839Z,4.02
2022-12-01T02:39:33.198Z,3.93
2022-12-01T02:42:35.689Z,3.92
2022-12-01T02:45:18.490Z,3.94
2022-12-01T02:48:02.886Z,3.99
2022-12-01T02:50:42.910Z,3.94
2022-12-01T02:53:22.756Z,4.03
2022-12-01T02:56:06.697Z,4.01
2022-12-01T02:58:49.385Z,3.95
2022-12-01T03:01:33.637Z,4.00
2022-12-01T03:04:22.218Z,4.03
2022-12-01T03:07:20.072Z,3.96
2022-12-01T03:10:02.698Z,4.06
2022-12-01T03:12:48.271Z,3.98
2022-12-01T03:15:29.942Z,3.96
2022-12-01T03:18:15.053Z,4.00
2022-12-01T03:20:57.882Z,4.02
2022-12-01T03:23:41.898Z,4.02
2022-12-01T03:26:22.756Z,3.91
2022-12-01T03:29:14.678Z,3.83
2022-12-01T03:32:19.786Z,3.89
2022-12-01T03:35:04.647Z,3.85
2022-12-01T03:37:46.036Z,3.82
2022-12-01T03:40:28.258Z,3.79
2022-12-01T03:43:09.628Z,3.84
2022-12-01T03:46:01.320Z,3.85
2022-12-01T03:48:40.492Z,3.86
2022-12-01T03:51:23.944Z,3.83
2022-12-01T03:54:08.424Z,3.82
2022-12-01T03:56:49.933Z,3.83
2022-12-01T03:59:35.555Z,3.75
2022-12-01T04:02:13.892Z,3.83
2022-12-01T04:04:53.897Z,3.79
2022-12-01T04:07:35.288Z,3.82
2022-12-01T04:10:16.747Z,3.83
2022-12-01T04:13:00.161Z,3.80
2022-12-01T04:15:41.092Z,3.78
2022-12-01T04:18:22.676Z,3.77
2022-12-01T04:21:03.882Z,3.77
2022-12-01T04:24:01.159Z,3.81
2022-12-01T04:26:43.396Z,3.80
2022-12-01T04:29:26.669Z,3.83
2022-12-01T04:32:05.974Z,3.84
2022-12-01T04:34:45.894Z,3.82
2022-12-01T04:37:25.703Z,3.80
2022-12-01T04:40:07.983Z,3.80
2022-12-01T04:42:46.555Z,3.80
2022-12-01T04:45:26.768Z,3.81
2022-12-01T04:48:08.373Z,3.88
2022-12-01T04:50:50.823Z,3.78
2022-12-01T04:53:29.023Z,3.67
2022-12-01T04:56:21.966Z,3.73
2022-12-01T04:59:02.517Z,3.76
2022-12-01T05:01:44.576Z,3.78
2022-12-01T05:04:41.376Z,3.79
2022-12-01T05:07:35.377Z,3.79
2022-12-01T05:10:19.535Z,3.83
2022-12-01T05:13:03.040Z,3.73
2022-12-01T05:15:45.919Z,3.79
2022-12-01T05:18:29.118Z,3.76
2022-12-01T05:21:12.042Z,3.65
2022-12-01T05:23:52.932Z,3.74
2022-12-01T05:26:35.773Z,3.68
2022-12-01T05:29:17.749Z,3.75
2022-12-01T05:31:57.951Z,3.76
2022-12-01T05:34:38.571Z,3.61
2022-12-01T05:37:21.015Z,3.67
2022-12-01T05:40:00.461Z,3.59
2022-12-01T05:42:39.292Z,3.61
2022-12-01T05:45:19.425Z,3.51
2022-12-01T05:48:01.100Z,3.58
2022-12-01T05:50:44.274Z,3.56
2022-12-01T05:53:26.787Z,3.39
2022-12-01T05:56:08.350Z,3.36
2022-12-01T05:58:49.696Z,3.32
2022-12-01T06:01:31.026Z,3.32
2022-12-01T06:04:10.856Z,3.37
2022-12-01T06:06:52.340Z,3.36
2022-12-01T06:09:35.884Z,3.32
2022-12-01T06:12:18.683Z,3.11
2022-12-01T06:15:01.691Z,3.19
2022-12-01T06:17:43.897Z,3.27
2022-12-01T06:20:26.172Z,3.31
2022-12-01T06:23:07.089Z,3.25
2022-12-01T06:25:49.097Z,3.24
2022-12-01T06:28:31.904Z,3.13
2022-12-01T06:31:11.011Z,3.10
2022-12-01T06:33:57.107Z,3.12
2022-12-01T06:36:39.184Z,3.10
2022-12-01T06:39:33.738Z,3.13
2022-12-01T06:42:15.540Z,3.13
2022-12-01T06:44:56.519Z,3.20
2022-12-01T06:47:37.343Z,3.08
2022-12-01T06:50:17.853Z,3.09
2022-12-01T06:52:59.459Z,3.12
2022-12-01T06:55:40.562Z,2.89
2022-12-01T06:58:23.950Z,3.01
2022-12-01T07:01:10.359Z,2.91
2022-12-01T07:03:51.363Z,3.00
2022-12-01T07:06:32.899Z,3.04
2022-12-01T07:09:16.027Z,2.97
2022-12-01T07:11:59.051Z,3.06
2022-12-01T07:14:42.381Z,2.94
2022-12-01T07:17:24.041Z,2.89
2022-12-01T07:20:07.261Z,2.90
2022-12-01T07:22:49.489Z,2.97
2022-12-01T07:25:30.621Z,3.00
2022-12-01T07:28:13.873Z,2.68
2022-12-01T07:30:54.905Z,2.82
2022-12-01T07:33:57.434Z,2.63
2022-12-01T07:36:38.463Z,2.71
2022-12-01T07:39:19.429Z,2.60
2022-12-01T07:41:59.717Z,2.67
2022-12-01T07:44:41.074Z,2.79
2022-12-01T07:47:21.940Z,2.70
2022-12-01T07:50:02.307Z,2.68
2022-12-01T07:52:42.151Z,2.73
2022-12-01T07:55:21.947Z,2.72
2022-12-01T07:58:02.746Z,2.79
2022-12-01T08:00:43.146Z,2.74
2022-12-01T08:03:24.687Z,2.77
2022-12-01T08:06:07.550Z,2.87
2022-12-01T08:09:03.022Z,2.85
2022-12-01T08:11:44.776Z,2.87
2022-12-01T08:14:25.184Z,2.86
2022-12-01T08:17:11.219Z,2.87
2022-12-01T08:19:52.783Z,2.96
2022-12-01T08:22:34.345Z,2.96
2022-12-01T08:25:17.826Z,3.03
2022-12-01T08:27:58.571Z,3.03
2022-12-01T08:30:39.431Z,2.85
2022-12-01T08:33:19.817Z,2.92
2022-12-01T08:36:01.982Z,2.86
2022-12-01T08:38:56.826Z,2.92
2022-12-01T08:41:37.556Z,2.84
2022-12-01T08:44:19.283Z,2.80
2022-12-01T08:46:58.024Z,2.93
2022-12-01T08:49:53.397Z,2.86
2022-12-01T08:52:34.558Z,2.94
2022-12-01T08:55:15.743Z,3.00
2022-12-01T08:57:58.530Z,3.10
2022-12-01T09:00:36.965Z,3.10
2022-12-01T09:03:20.248Z,2.93
2022-12-01T09:06:05.100Z,3.08
2022-12-01T09:08:46.198Z,3.00
2022-12-01T09:11:28.442Z,3.00
2022-12-01T09:14:09.880Z,3.05
2022-12-01T09:16:51.039Z,3.03
2022-12-01T09:19:33.963Z,3.11
2022-12-01T09:22:14.708Z,3.11
2022-12-01T09:25:14.631Z,3.23
2022-12-01T09:27:55.558Z,3.24
2022-12-01T09:30:37.259Z,3.29
2022-12-01T09:33:18.397Z,3.19
2022-12-01T09:36:00.119Z,3.19
2022-12-01T09:38:43.907Z,3.22
2022-12-01T09:41:24.927Z,3.19
2022-12-01T09:44:10.475Z,3.29
2022-12-01T09:46:53.383Z,3.35
2022-12-01T09:49:36.451Z,3.40
2022-12-01T09:52:19.658Z,3.32
2022-12-01T09:55:14.745Z,3.10
2022-12-01T09:57:56.355Z,3.19
2022-12-01T10:00:37.857Z,3.22
2022-12-01T10:03:25.402Z,3.21
2022-12-01T10:09:15.454Z,3.11
2022-12-01T10:12:00.223Z,3.29
2022-12-01T10:14:41.882Z,3.25
2022-12-01T10:17:22.991Z,3.47
2022-12-01T10:20:07.678Z,3.47
2022-12-01T10:22:54.279Z,3.45
2022-12-01T10:25:38.002Z,3.45
2022-12-01T10:28:26.422Z,3.35
2022-12-01T10:31:10.709Z,3.60
2022-12-01T10:34:05.195Z,3.68
2022-12-01T10:36:47.211Z,3.76
2022-12-01T10:39:42.256Z,3.80
2022-12-01T10:42:35.623Z,3.62
2022-12-01T10:45:21.489Z,3.53
2022-12-01T10:48:16.376Z,3.49
2022-12-01T10:50:57.068Z,3.63
2022-12-01T10:53:37.874Z,3.66
2022-12-01T10:56:18.235Z,3.60
2022-12-01T10:59:03.511Z,3.48
2022-12-01T11:01:47.492Z,3.47
2022-12-01T11:04:46.138Z,3.45
2022-12-01T11:07:28.802Z,3.50
2022-12-01T11:10:16.755Z,3.44
2022-12-01T11:12:58.655Z,3.40
2022-12-01T11:15:41.151Z,3.32
2022-12-01T11:18:23.299Z,3.35
2022-12-01T11:21:08.877Z,3.32
2022-12-01T11:23:53.770Z,3.37
2022-12-01T11:26:34.746Z,3.37
2022-12-01T11:29:24.085Z,3.29
2022-12-01T11:32:04.968Z,3.37
2022-12-01T11:34:47.645Z,3.33
2022-12-01T11:37:29.371Z,3.33
2022-12-01T11:40:15.839Z,3.38
2022-12-01T11:42:55.125Z,3.33
2022-12-01T11:45:39.245Z,3.32
2022-12-01T11:48:25.575Z,3.24
2022-12-01T11:51:07.911Z,3.27
2022-12-01T11:53:48.033Z,3.43
2022-12-01T11:56:31.316Z,3.57
2022-12-01T11:59:13.881Z,3.24
2022-12-01T12:02:10.075Z,3.26
2022-12-01T12:05:15.120Z,3.44
2022-12-01T12:07:58.998Z,3.38
2022-12-01T12:10:42.794Z,3.48
2022-12-01T12:13:30.902Z,3.50
2022-12-01T12:16:26.340Z,3.46
2022-12-01T12:19:12.375Z,3.53
2022-12-01T12:22:11.432Z,3.37
2022-12-01T12:24:54.490Z,3.29
2022-12-01T12:27:38.848Z,3.40
2022-12-01T12:30:22.277Z,3.33
2022-12-01T12:33:11.989Z,3.29
2022-12-01T12:35:54.422Z,3.30
2022-12-01T12:38:37.401Z,3.31
2022-12-01T12:41:19.791Z,3.41
2022-12-01T12:44:04.463Z,3.45
2022-12-01T12:46:47.507Z,3.48
2022-12-01T12:49:30.704Z,3.45
2022-12-01T12:52:13.463Z,3.24
2022-12-01T12:54:53.288Z,3.38
2022-12-01T12:57:34.737Z,3.08
2022-12-01T13:00:29.932Z,3.12
2022-12-01T13:03:14.785Z,3.11
2022-12-01T13:05:58.656Z,3.25
2022-12-01T13:08:39.922Z,3.21
2022-12-01T13:11:23.860Z,3.22
2022-12-01T13:14:24.041Z,3.36
2022-12-01T13:17:13.404Z,3.21
2022-12-01T13:19:54.922Z,3.22
2022-12-01T13:22:38.444Z,3.23
2022-12-01T13:25:23.237Z,3.39
2022-12-01T13:28:04.868Z,3.47
2022-12-01T13:30:54.545Z,3.47
2022-12-01T13:33:35.445Z,3.50
2022-12-01T13:39:21.692Z,3.30
2022-12-01T13:42:03.030Z,3.47
2022-12-01T13:44:44.030Z,3.51
2022-12-01T13:47:42.600Z,3.47
2022-12-01T13:50:40.084Z,3.56
2022-12-01T13:53:26.290Z,3.63
2022-12-01T13:56:28.237Z,3.66
2022-12-01T13:59:21.812Z,3.47
2022-12-01T14:02:19.062Z,3.58
2022-12-01T14:05:09.100Z,3.59
2022-12-01T14:07:50.306Z,3.43
2022-12-01T14:10:33.713Z,3.36
2022-12-01T14:13:18.611Z,3.48
2022-12-01T14:16:01.723Z,3.47
2022-12-01T14:18:44.801Z,3.42
2022-12-01T14:21:42.535Z,3.43
2022-12-01T14:24:24.041Z,3.32
2022-12-01T14:27:04.268Z,3.33
2022-12-01T14:29:45.661Z,3.29
2022-12-01T14:32:26.950Z,3.32
2022-12-01T14:35:09.570Z,3.22
2022-12-01T14:37:50.105Z,3.28
2022-12-01T14:40:31.060Z,3.18
2022-12-01T14:43:28.116Z,3.05
2022-12-01T14:46:08.899Z,3.14
2022-12-01T14:48:52.085Z,3.01
2022-12-01T14:51:32.246Z,3.12
2022-12-01T14:54:17.314Z,3.11
2022-12-01T14:57:04.457Z,3.13
2022-12-01T14:59:46.956Z,3.12
2022-12-01T15:02:30.045Z,3.01
2022-12-01T15:05:12.121Z,2.98
2022-12-01T15:08:40.944Z,3.00
2022-12-01T15:11:31.111Z,3.04
2022-12-01T15:14:31.553Z,2.98
2022-12-01T15:21:06.820Z,2.75
2022-12-01T15:23:54.582Z,2.81
2022-12-01T15:26:36.515Z,2.84
2022-12-01T15:29:19.049Z,2.87
2022-12-01T15:32:02.777Z,2.67
2022-12-01T15:34:43.662Z,2.80
2022-12-01T15:37:23.649Z,2.79
2022-12-01T15:43:07.335Z,2.65
2022-12-01T15:45:52.456Z,2.57
2022-12-01T15:48:33.188Z,2.64
2022-12-01T15:51:15.542Z,2.58
2022-12-01T15:53:59.103Z,2.60
2022-12-01T15:56:40.256Z,2.68
2022-12-01T15:59:25.396Z,2.57
2022-12-01T16:02:08.880Z,2.61
2022-12-01T16:04:49.422Z,2.60
2022-12-01T16:07:57.198Z,2.56
2022-12-01T16:10:35.078Z,2.65
2022-12-01T16:13:34.287Z,2.49
2022-12-01T16:16:28.585Z,2.54
2022-12-01T16:19:30.668Z,2.47
2022-12-01T16:22:15.513Z,2.55
2022-12-01T16:24:57.799Z,2.43
2022-12-01T16:27:54.263Z,2.56
2022-12-01T16:30:37.137Z,2.61
2022-12-01T16:33:18.771Z,2.55
2022-12-01T16:36:03.338Z,2.61
2022-12-01T16:38:44.170Z,2.62
2022-12-01T16:41:36.423Z,2.55
2022-12-01T16:44:28.494Z,2.57
2022-12-01T16:47:12.560Z,2.54
2022-12-01T16:49:53.960Z,2.42
2022-12-01T16:52:50.558Z,2.41
2022-12-01T16:55:36.755Z,2.46
2022-12-01T16:58:17.160Z,2.39
2022-12-01T17:00:57.006Z,2.29
2022-12-01T17:03:42.511Z,2.38
2022-12-01T17:06:23.071Z,2.41
2022-12-01T17:09:04.660Z,2.33
2022-12-01T17:11:47.784Z,2.34
2022-12-01T17:14:28.792Z,2.36
2022-12-01T17:17:08.640Z,2.41
2022-12-01T17:19:48.456Z,2.47
2022-12-01T17:22:35.957Z,2.36
2022-12-01T17:25:14.273Z,2.31
2022-12-01T17:27:57.235Z,2.38
2022-12-01T17:30:39.353Z,2.37
2022-12-01T17:33:20.596Z,2.37
2022-12-01T17:36:02.403Z,2.45
2022-12-01T17:38:44.828Z,2.40
2022-12-01T17:41:32.435Z,2.43
2022-12-01T17:44:18.341Z,2.39
2022-12-01T17:47:01.661Z,2.42
2022-12-01T17:49:42.875Z,2.33
2022-12-01T17:52:28.457Z,2.47
2022-12-01T17:55:09.815Z,2.53
2022-12-01T18:08:15.564Z,2.47
2022-12-01T18:10:56.511Z,2.46
2022-12-01T18:13:38.511Z,2.41
2022-12-01T18:16:20.869Z,2.50
2022-12-01T18:19:00.962Z,2.50
2022-12-01T18:21:42.212Z,2.43
2022-12-01T18:24:23.853Z,2.43
2022-12-01T18:27:05.177Z,2.41
2022-12-01T18:29:46.523Z,2.37
2022-12-01T18:32:30.151Z,2.33
2022-12-01T18:35:11.078Z,2.35
2022-12-01T18:37:55.568Z,2.43
2022-12-01T18:40:38.063Z,2.42
2022-12-01T18:43:20.269Z,2.33
2022-12-01T18:46:01.221Z,2.45
2022-12-01T18:48:46.544Z,2.46
2022-12-01T18:52:11.093Z,2.35
2022-12-01T18:54:53.356Z,2.36
2022-12-01T18:57:43.762Z,2.48
2022-12-01T19:00:25.309Z,2.49
2022-12-01T19:03:04.783Z,2.51
2022-12-01T19:05:45.612Z,2.45
2022-12-01T19:08:26.041Z,2.42
2022-12-01T19:11:08.441Z,2.42
2022-12-01T19:14:03.496Z,2.51
2022-12-01T19:16:43.673Z,2.57
2022-12-01T19:19:26.236Z,2.50
2022-12-01T19:22:06.614Z,2.43
2022-12-01T19:24:50.535Z,2.55
2022-12-01T19:27:31.050Z,2.52
2022-12-01T19:30:12.986Z,2.58
2022-12-01T19:33:03.604Z,2.61
2022-12-01T19:35:44.818Z,2.55
2022-12-01T19:38:26.399Z,2.52
2022-12-01T19:41:06.049Z,2.48
2022-12-01T19:43:47.584Z,2.45
2022-12-01T19:46:29.082Z,2.51
2022-12-01T19:49:12.891Z,2.41
2022-12-01T19:52:06.390Z,2.51
2022-12-01T19:54:45.794Z,2.50
2022-12-01T19:57:28.140Z,2.52
2022-12-01T20:00:09.953Z,2.49
2022-12-01T20:02:51.661Z,2.53
2022-12-01T20:05:31.766Z,2.39
2022-12-01T20:08:13.723Z,2.23
2022-12-01T20:10:54.628Z,2.37
2022-12-01T20:13:36.572Z,2.45
2022-12-01T20:16:17.634Z,2.47
2022-12-01T20:19:00.033Z,2.41
2022-12-01T20:21:43.275Z,2.43
2022-12-01T20:24:26.830Z,2.43
2022-12-01T20:27:07.866Z,2.40
2022-12-01T20:29:49.497Z,2.37
2022-12-01T20:32:30.973Z,2.36
2022-12-01T20:35:12.111Z,2.33
2022-12-01T20:37:53.394Z,2.29
2022-12-01T20:40:33.272Z,2.39
2022-12-01T20:43:11.123Z,2.36
2022-12-01T20:45:49.445Z,2.25
2022-12-01T20:48:31.866Z,2.24
2022-12-01T20:51:22.373Z,2.23
2022-12-01T20:57:03.136Z,2.30
2022-12-01T20:59:46.644Z,2.33
2022-12-01T21:02:27.554Z,2.32
2022-12-01T21:05:09.193Z,2.20
2022-12-01T21:07:55.635Z,2.16
2022-12-01T21:10:37.615Z,2.17
2022-12-01T21:13:37.920Z,2.27
2022-12-01T21:16:21.246Z,2.27
2022-12-01T21:19:06.208Z,2.12
2022-12-01T21:21:46.225Z,2.06
2022-12-01T21:24:34.085Z,2.05
2022-12-01T21:27:17.775Z,2.20
2022-12-01T21:29:59.408Z,2.08
2022-12-01T21:32:44.092Z,2.19
2022-12-01T21:35:25.501Z,2.16
2022-12-01T21:38:50.443Z,2.16
2022-12-01T21:41:31.500Z,2.20
2022-12-01T21:44:17.043Z,2.13
2022-12-01T21:47:01.474Z,2.12
2022-12-01T21:49:48.919Z,2.08
2022-12-01T21:52:29.946Z,2.16
2022-12-01T21:55:25.973Z,2.10
2022-12-01T21:58:15.323Z,1.99
2022-12-01T22:00:58.741Z,2.10
2022-12-01T22:03:40.621Z,2.18
2022-12-01T22:06:30.365Z,2.17
2022-12-01T22:09:17.725Z,1.98
2022-12-01T22:11:58.663Z,2.15
2022-12-01T22:14:41.968Z,2.07
2022-12-01T22:17:22.482Z,2.16
2022-12-01T22:20:16.669Z,2.16
2022-12-01T22:23:00.117Z,2.19
2022-12-01T22:25:43.805Z,2.16
2022-12-01T22:28:29.130Z,2.10
2022-12-01T22:31:13.639Z,2.20
2022-12-01T22:34:03.307Z,2.18
2022-12-01T22:36:48.099Z,2.15
2022-12-01T22:39:29.588Z,2.07
2022-12-01T22:42:14.510Z,2.13
2022-12-01T22:44:56.552Z,2.14
2022-12-01T22:47:45.567Z,2.13
2022-12-01T22:50:30.522Z,2.12
2022-12-01T22:53:13.906Z,2.15
2022-12-01T22:55:54.904Z,2.05
2022-12-01T22:58:38.543Z,1.98
2022-12-01T23:01:31.340Z,1.90
2022-12-01T23:04:20.266Z,2.03
2022-12-01T23:07:06.325Z,1.97
2022-12-01T23:09:50.459Z,2.01
2022-12-01T23:12:31.315Z,2.03
2022-12-01T23:15:26.996Z,2.09
2022-12-01T23:18:12.947Z,2.10
2022-12-01T23:20:57.808Z,2.00
2022-12-01T23:23:38.800Z,2.00
2022-12-01T23:26:21.796Z,1.99
2022-12-01T23:29:01.805Z,1.91
2022-12-01T23:31:44.379Z,1.88
2022-12-01T23:34:24.526Z,1.78
2022-12-01T23:37:09.584Z,1.79
2022-12-01T23:40:17.101Z,1.75
2022-12-01T23:43:00.511Z,1.74
2022-12-01T23:45:42.455Z,1.69
2022-12-01T23:48:24.107Z,1.64
2022-12-01T23:51:05.017Z,1.62
2022-12-01T23:53:58.264Z,1.76
2022-12-01T23:56:39.650Z,1.67
2022-12-01T23:59:21.217Z,1.70
